PHMK

Molokai Airport

Kaunakakai, Hawaii, USA
PHMK 181120Z 1812/1912 05008KT P6SM FEW020 FEW045 FM181900 04013G22KT P6SM FEW025 SCT045 FM190600 05010KT P6SM FEW025 FEW045
Issued Valid From Valid To
Sep-18 @ 11:20 UTC
(6 hours ago)
Sep-18 @ 12:00 UTC
(6 hours ago)
Sep-19 @ 12:00 UTC
(in 18 hours)
Sep-18 @ 12:00 to Sep-18 @ 19:00
PHMK 181120Z 1812/1912 05008KT P6SM FEW020 FEW045
Wind Visibility Clouds
50° at 8 knots Greater than 6 miles
  • Few at 2,000' AGL
  • Few at 4,500' AGL
From Sep-18 @ 19:00 to Sep-19 @ 06:00
FM181900 04013G22KT P6SM FEW025 SCT045
Wind Visibility Clouds
40° at 13 knots
 Gusting to 22 knots
Greater than 6 miles
  • Few at 2,500' AGL
  • Scattered at 4,500' AGL
From Sep-19 @ 06:00 to Sep-19 @ 12:00
FM190600 05010KT P6SM FEW025 FEW045
Wind Visibility Clouds
50° at 10 knots Greater than 6 miles
  • Few at 2,500' AGL
  • Few at 4,500' AGL
PHMK 181120Z 1812/1912 05008KT P6SM FEW020 FEW045 FM181900 04013G22KT P6SM FEW025 SCT045 FM190600 05010KT P6SM FEW025 FEW045
Issued Sep-18 @ 11:20 UTC
(6 hours ago)
Valid From Sep-18 @ 12:00 UTC
(6 hours ago)
Valid To Sep-19 @ 12:00 UTC
(in 18 hours)
Sep-18 @ 12:00 - Sep-18 @ 19:00
Wind Visibility
50° at 8 knots Greater than 6 miles
Clouds
  • Few at 2,000' AGL
  • Few at 4,500' AGL
From Sep-18 @ 19:00 - Sep-19 @ 06:00
Wind Visibility
40° at 13 knots
 Gusting to 22 knots
Greater than 6 miles
Clouds
  • Few at 2,500' AGL
  • Scattered at 4,500' AGL
From Sep-19 @ 06:00 - Sep-19 @ 12:00
Wind Visibility
50° at 10 knots Greater than 6 miles
Clouds
  • Few at 2,500' AGL
  • Few at 4,500' AGL